Greenbush, MN (56726)

1:30 PM CDT on August 20, 2014 (GMT -0500)
RAWS KITTSON MN US | Change Station
CLOSE
Current Station
Personal Weather Station
Location: Karlstad, MN
Elevation: 1060 ft
Nearby Weather Stations

Elev 1060 ft 48.59 °N, 96.49 °W | Updated 58 minutes ago

Clear
Clear
81 °F
Feels Like 83 °F
N
9
Wind Variable Wind from SSE
Gusts 15.0 mph

Today
High -- | Low -- °F
--% Chance of Precip.
Yesterday
High -- | Low -- °F
Precip. -- in
6:24 AM 8:30 PM
Waning Crescent, 20% visible
Pressure 29.82 in
Visibility 10.0 miles
Clouds Clear
Heat Index 83 °F
Dew Point 64 °F
Humidity 57%
Rainfall 0.00 in
Snow Depth Not available.
UV 8 out of 12
Pollen 10.70 out of 12
Air Quality Not available.
Flu Activity Not available.
METAR KROX 201814Z AUTO 13009KT 10SM CLR 27/18 A2982 RMK AO2

More Conditions Fewer Conditions

Pressure 29.82 in
Visibility 10.0 miles
Clouds Clear
Heat Index 83 °F
Dew Point 64 °F
Humidity 57%
Rainfall 0.00 in
Snow Depth Not available.
UV 8 out of 12
Pollen 10.70 out of 12
Air Quality Not available.
Flu Activity Not available.
METAR KROX 201814Z AUTO 13009KT 10SM CLR 27/18 A2982 RMK AO2

More Conditions Fewer Conditions

10-Day Weather Forecast

Almanac

Astronomy

Aug. 20, 2014 Rise Set
Actual Time 6:24 AM CDT 8:30 PM CDT
Civil Twilight 5:50 AM CDT 9:04 PM CDT
Nautical Twilight 5:08 AM CDT 9:46 PM CDT
Astronomical Twilight 4:20 AM CDT 10:33 PM CDT
Moon 1:56 AM CDT 5:24 PM CDT
Length of Visible Light 15h 13m
Length of Day
14h 05m
Tomorrow will be 3m 18s shorter.
Waning Crescent, 20% of the Moon is Illuminated
Today
Waning Crescent
Aug 25
New
Sep 2
First Quarter
Sep 8
Full
Sep 15
Last Quarter

Today's Extremes

State Highs State Lows

Community

WunderPhotos

Upload Photos

1,745,707 photos uploaded!

WunderBlogs® & News

By Dr. Jeff Masters
Director of Meteorology, Weather Underground
By Kari Strenfel
Meteorologist, Weather Underground
By Christopher C. Burt
Weather Historian, Weather Underground
August 20, 2014
August 20, 2014
August 20, 2014

Nearby

Snow Depth

Station Depth Elevation
No new snow has been reported.

Earthquake Activity

City Distance Mag. Time & Date
No recent earthquake activity has been reported nearby.
Minimum magnitude displayed is 2.5.

Coastal Water Temperatures

Place Temperature
No Stations Reporting

Nearby Weather Stations